createdAt,value
2023-01-30T00:01:12.826Z,-0.73
2023-01-30T00:03:39.378Z,-0.77
2023-01-30T00:06:05.977Z,-0.90
2023-01-30T00:08:32.474Z,-0.89
2023-01-30T00:11:04.332Z,-0.81
2023-01-30T00:13:30.829Z,-1.06
2023-01-30T00:15:57.477Z,-1.02
2023-01-30T00:18:24.126Z,-1.07
2023-01-30T00:20:59.264Z,-1.17
2023-01-30T00:23:27.116Z,-1.13
2023-01-30T00:25:53.819Z,-1.00
2023-01-30T00:28:20.692Z,-1.05
2023-01-30T00:30:51.722Z,-1.21
2023-01-30T00:33:19.230Z,-1.47
2023-01-30T00:35:47.438Z,-1.55
2023-01-30T00:38:14.681Z,-1.26
2023-01-30T00:40:41.532Z,-1.21
2023-01-30T00:43:27.835Z,-1.22
2023-01-30T00:46:13.740Z,-1.38
2023-01-30T00:48:40.247Z,-1.41
2023-01-30T00:51:06.699Z,-1.23
2023-01-30T00:53:33.262Z,-1.42
2023-01-30T00:55:59.776Z,-1.19
2023-01-30T00:58:26.523Z,-1.27
2023-01-30T01:00:53.370Z,-1.58
2023-01-30T01:03:20.242Z,-1.54
2023-01-30T01:05:47.040Z,-1.43
2023-01-30T01:08:13.604Z,-1.15
2023-01-30T01:10:40.197Z,-1.34
2023-01-30T01:13:07.064Z,-1.26
2023-01-30T01:15:34.026Z,-1.17
2023-01-30T01:18:00.603Z,-1.15
2023-01-30T01:20:27.119Z,-1.13
2023-01-30T01:22:56.012Z,-1.08
2023-01-30T01:25:23.946Z,-1.04
2023-01-30T01:27:50.879Z,-1.15
2023-01-30T01:30:17.802Z,-1.15
2023-01-30T01:32:45.065Z,-1.14
2023-01-30T01:35:11.896Z,-1.12
2023-01-30T01:37:38.467Z,-1.19
2023-01-30T01:40:24.532Z,-0.98
2023-01-30T01:42:51.139Z,-1.13
2023-01-30T01:45:22.113Z,-1.20
2023-01-30T01:48:03.399Z,-1.36
2023-01-30T01:50:41.225Z,-1.42
2023-01-30T01:53:10.408Z,-1.20
2023-01-30T01:55:38.703Z,-1.19
2023-01-30T01:58:11.948Z,-1.46
2023-01-30T02:00:38.736Z,-1.26
2023-01-30T02:03:15.108Z,-1.26
2023-01-30T02:05:46.649Z,-1.17
2023-01-30T02:08:26.345Z,-1.20
2023-01-30T02:11:01.605Z,-1.08
2023-01-30T02:13:28.504Z,-1.05
2023-01-30T02:16:00.871Z,-1.01
2023-01-30T02:18:29.039Z,-0.99
2023-01-30T02:21:13.941Z,-0.97
2023-01-30T02:24:18.142Z,-0.97
2023-01-30T02:26:53.322Z,-1.01
2023-01-30T02:29:50.252Z,-1.04
2023-01-30T02:33:00.648Z,-0.92
2023-01-30T02:35:35.852Z,-0.92
2023-01-30T02:38:02.290Z,-0.95
2023-01-30T02:41:00.249Z,-1.00
2023-01-30T02:43:58.463Z,-0.79
2023-01-30T02:46:32.312Z,-0.68
2023-01-30T02:49:33.237Z,-0.71
2023-01-30T02:52:02.397Z,-0.76
2023-01-30T02:54:28.921Z,-0.75
2023-01-30T02:56:58.683Z,-0.70
2023-01-30T02:59:30.741Z,-0.76
2023-01-30T03:02:29.602Z,-0.73
2023-01-30T03:05:26.483Z,-0.78
2023-01-30T03:08:10.668Z,-0.72
2023-01-30T03:10:47.636Z,-0.64
2023-01-30T03:13:40.443Z,-0.62
2023-01-30T03:16:12.682Z,-0.65
2023-01-30T03:18:43.586Z,-0.67
2023-01-30T03:21:11.317Z,-0.54
2023-01-30T03:23:37.920Z,-0.49
2023-01-30T03:26:08.259Z,-0.51
2023-01-30T03:28:35.555Z,-0.49
2023-01-30T03:31:02.138Z,-0.40
2023-01-30T03:33:28.704Z,-0.39
2023-01-30T03:35:55.401Z,-0.24
2023-01-30T03:38:21.987Z,-0.28
2023-01-30T03:40:48.543Z,-0.17
2023-01-30T03:43:15.003Z,-0.16
2023-01-30T03:45:41.487Z,-0.10
2023-01-30T03:48:07.971Z,-0.09
2023-01-30T03:50:35.437Z,-0.08
2023-01-30T03:53:01.981Z,-0.03
2023-01-30T03:55:28.459Z,0.03
2023-01-30T03:57:58.328Z,-0.02
2023-01-30T04:00:24.816Z,-0.06
2023-01-30T04:02:52.071Z,-0.03
2023-01-30T04:05:19.040Z,-0.01
2023-01-30T04:07:45.779Z,-0.01
2023-01-30T04:10:15.439Z,-0.02
2023-01-30T04:12:42.875Z,-0.01
2023-01-30T04:15:10.285Z,0.01
2023-01-30T04:17:36.744Z,0.04
2023-01-30T04:20:03.883Z,-0.03
2023-01-30T04:22:30.633Z,-0.03
2023-01-30T04:24:57.109Z,-0.02
2023-01-30T04:27:23.601Z,-0.05
2023-01-30T04:29:50.091Z,-0.05
2023-01-30T04:32:16.536Z,-0.03
2023-01-30T04:34:45.111Z,-0.05
2023-01-30T04:37:12.520Z,0.06
2023-01-30T04:39:39.086Z,0.01
2023-01-30T04:42:05.683Z,-0.05
2023-01-30T04:44:32.195Z,-0.19
2023-01-30T04:46:58.695Z,-0.32
2023-01-30T04:49:25.254Z,-0.21
2023-01-30T04:51:51.887Z,-0.25
2023-01-30T04:54:18.431Z,-0.30
2023-01-30T04:56:44.916Z,-0.20
2023-01-30T04:59:11.431Z,-0.17
2023-01-30T05:01:39.194Z,-0.19
2023-01-30T05:04:06.768Z,-0.20
2023-01-30T05:06:34.300Z,-0.23
2023-01-30T05:09:00.989Z,-0.19
2023-01-30T05:11:28.642Z,-0.36
2023-01-30T05:13:55.853Z,-0.25
2023-01-30T05:16:23.495Z,-0.41
2023-01-30T05:18:50.817Z,-0.36
2023-01-30T05:21:19.746Z,-0.79
2023-01-30T05:23:46.667Z,-0.82
2023-01-30T05:26:14.730Z,-0.73
2023-01-30T05:28:42.895Z,-0.86
2023-01-30T05:31:12.854Z,-0.99
2023-01-30T05:33:40.455Z,-1.05
2023-01-30T05:36:08.095Z,-0.84
2023-01-30T05:38:34.672Z,-0.78
2023-01-30T05:41:06.616Z,-0.74
2023-01-30T05:43:34.572Z,-0.74
2023-01-30T05:46:04.670Z,-0.89
2023-01-30T05:48:32.421Z,-0.89
2023-01-30T05:51:00.126Z,-1.17
2023-01-30T05:53:32.271Z,-0.97
2023-01-30T05:56:01.221Z,-1.10
2023-01-30T05:58:28.519Z,-1.09
2023-01-30T06:00:59.565Z,-1.05
2023-01-30T06:03:26.123Z,-1.16
2023-01-30T06:05:52.620Z,-1.35
2023-01-30T06:08:19.085Z,-1.50
2023-01-30T06:10:45.543Z,-1.47
2023-01-30T06:13:12.058Z,-1.37
2023-01-30T06:15:38.750Z,-1.32
2023-01-30T06:18:05.381Z,-1.31
2023-01-30T06:20:31.958Z,-1.33
2023-01-30T06:22:58.504Z,-1.14
2023-01-30T06:25:25.035Z,-1.07
2023-01-30T06:27:51.543Z,-0.95
2023-01-30T06:30:18.298Z,-0.89
2023-01-30T06:32:44.751Z,-0.93
2023-01-30T06:35:11.198Z,-0.88
2023-01-30T06:37:37.699Z,-0.80
2023-01-30T06:40:04.596Z,-0.77
2023-01-30T06:42:31.045Z,-0.79
2023-01-30T06:44:57.493Z,-0.73
2023-01-30T06:47:23.958Z,-0.67
2023-01-30T06:49:50.423Z,-0.56
2023-01-30T06:52:16.911Z,-0.51
2023-01-30T06:54:43.435Z,-0.47
2023-01-30T06:57:09.950Z,-0.50
2023-01-30T06:59:36.436Z,-0.46
2023-01-30T07:02:02.969Z,-0.45
2023-01-30T07:04:29.469Z,-0.49
2023-01-30T07:06:55.973Z,-0.40
2023-01-30T07:09:22.499Z,-0.39
2023-01-30T07:11:50.368Z,-0.30
2023-01-30T07:14:16.883Z,-0.35
2023-01-30T07:16:43.423Z,-0.35
2023-01-30T07:19:10.006Z,-0.31
2023-01-30T07:21:36.526Z,-0.33
2023-01-30T07:24:02.987Z,-0.42
2023-01-30T07:26:31.325Z,-0.40
2023-01-30T07:28:57.870Z,-0.43
2023-01-30T07:31:24.436Z,-0.27
2023-01-30T07:33:50.958Z,-0.24
2023-01-30T07:36:17.465Z,-0.23
2023-01-30T07:38:43.941Z,-0.21
2023-01-30T07:41:10.487Z,-0.12
2023-01-30T07:43:36.934Z,0.00
2023-01-30T07:46:04.029Z,0.15
2023-01-30T07:48:30.496Z,0.22
2023-01-30T07:50:57.672Z,0.13
2023-01-30T07:53:24.253Z,0.13
2023-01-30T07:55:50.859Z,0.27
2023-01-30T07:58:17.763Z,0.33
2023-01-30T08:00:45.128Z,0.66
2023-01-30T08:03:16.161Z,0.95
2023-01-30T08:05:44.266Z,1.27
2023-01-30T08:08:10.990Z,1.66
2023-01-30T08:10:37.499Z,1.90
2023-01-30T08:13:03.960Z,2.31
2023-01-30T08:15:31.856Z,2.83
2023-01-30T08:17:58.562Z,3.30
2023-01-30T08:20:27.247Z,3.35
2023-01-30T08:22:54.245Z,3.57
2023-01-30T08:25:21.781Z,4.04
2023-01-30T08:27:48.351Z,4.59
2023-01-30T08:30:15.059Z,4.88
2023-01-30T08:32:41.609Z,5.22
2023-01-30T08:35:09.195Z,5.54
2023-01-30T08:37:35.796Z,5.60
2023-01-30T08:40:04.532Z,5.06
2023-01-30T08:42:31.142Z,4.40
2023-01-30T08:44:57.685Z,4.28
2023-01-30T08:47:24.175Z,4.16
2023-01-30T08:49:52.745Z,4.46
2023-01-30T08:52:20.384Z,6.35
2023-01-30T08:54:47.365Z,7.05
2023-01-30T08:57:14.913Z,7.65
2023-01-30T08:59:41.521Z,6.58
2023-01-30T09:02:11.690Z,6.31
2023-01-30T09:04:38.269Z,7.04
2023-01-30T09:07:04.901Z,7.65
2023-01-30T09:09:31.461Z,8.13
2023-01-30T09:11:57.983Z,8.34
2023-01-30T09:14:24.529Z,7.49
2023-01-30T09:16:55.775Z,6.87
2023-01-30T09:19:23.926Z,6.95
2023-01-30T09:21:51.720Z,7.15
2023-01-30T09:24:18.729Z,6.91
2023-01-30T09:26:45.440Z,6.89
2023-01-30T09:29:12.833Z,6.61
2023-01-30T09:31:39.729Z,6.62
2023-01-30T09:34:06.720Z,6.35
2023-01-30T09:36:33.568Z,6.28
2023-01-30T09:39:00.267Z,6.02
2023-01-30T09:41:35.430Z,6.30
2023-01-30T09:44:35.231Z,6.26
2023-01-30T09:47:09.643Z,6.23
2023-01-30T09:49:43.437Z,6.16
2023-01-30T09:52:25.056Z,5.86
2023-01-30T09:54:54.007Z,5.74
2023-01-30T09:57:25.632Z,5.72
2023-01-30T09:59:52.150Z,5.56
2023-01-30T10:02:31.905Z,6.31
2023-01-30T10:05:02.035Z,6.51
2023-01-30T10:08:15.339Z,6.53
2023-01-30T10:11:09.621Z,6.82
2023-01-30T10:14:05.085Z,7.66
2023-01-30T10:16:50.026Z,8.43
2023-01-30T10:19:35.723Z,8.90
2023-01-30T10:22:12.775Z,9.17
2023-01-30T10:25:04.001Z,9.74
2023-01-30T10:27:33.144Z,10.12
2023-01-30T10:30:03.775Z,10.43
2023-01-30T10:32:41.972Z,10.92
2023-01-30T10:35:19.380Z,11.34
2023-01-30T10:38:07.496Z,11.32
2023-01-30T10:40:46.946Z,11.51
2023-01-30T10:43:27.741Z,11.72
2023-01-30T10:45:59.617Z,11.85
2023-01-30T10:48:48.957Z,11.91
2023-01-30T10:51:23.645Z,12.45
2023-01-30T10:53:58.579Z,12.60
2023-01-30T10:56:47.403Z,12.83
2023-01-30T10:59:28.744Z,12.87
2023-01-30T11:02:40.623Z,12.33
2023-01-30T11:05:15.996Z,11.62
2023-01-30T11:07:44.016Z,11.40
2023-01-30T11:10:22.825Z,12.25
2023-01-30T11:12:55.991Z,12.02
2023-01-30T11:15:24.861Z,10.55
2023-01-30T11:18:22.790Z,10.36
2023-01-30T11:21:03.070Z,9.12
2023-01-30T11:23:34.931Z,9.02
2023-01-30T11:26:11.248Z,8.83
2023-01-30T11:28:44.332Z,8.61
2023-01-30T11:31:28.314Z,8.64
2023-01-30T11:34:03.153Z,8.54
2023-01-30T11:36:32.414Z,8.16
2023-01-30T11:39:06.254Z,7.48
2023-01-30T11:41:32.735Z,7.57
2023-01-30T11:44:05.318Z,7.84
2023-01-30T11:46:36.890Z,7.91
2023-01-30T11:49:49.431Z,7.94
2023-01-30T11:51:57.371Z,7.95
2023-01-30T11:54:45.207Z,7.89
2023-01-30T11:57:15.318Z,8.10
2023-01-30T11:59:45.894Z,8.35
2023-01-30T12:02:19.616Z,8.61
2023-01-30T12:04:51.076Z,8.62
2023-01-30T12:07:25.995Z,8.80
2023-01-30T12:09:54.191Z,9.13
2023-01-30T12:12:28.939Z,8.90
2023-01-30T12:15:05.829Z,8.44
2023-01-30T12:17:46.565Z,8.08
2023-01-30T12:20:27.868Z,7.80
2023-01-30T12:23:11.377Z,7.72
2023-01-30T12:25:59.627Z,7.72
2023-01-30T12:28:45.395Z,7.72
2023-01-30T12:31:32.999Z,7.76
2023-01-30T12:34:00.351Z,7.66
2023-01-30T12:36:32.759Z,7.62
2023-01-30T12:39:14.950Z,7.51
2023-01-30T12:42:00.518Z,7.45
2023-01-30T12:44:51.809Z,7.39
2023-01-30T12:47:22.106Z,7.33
2023-01-30T12:50:01.278Z,7.30
2023-01-30T12:52:40.423Z,7.28
2023-01-30T12:55:09.984Z,7.18
2023-01-30T12:57:49.065Z,7.22
2023-01-30T13:00:37.025Z,7.12
2023-01-30T13:03:21.517Z,7.26
2023-01-30T13:06:10.676Z,7.07
2023-01-30T13:08:51.692Z,7.09
2023-01-30T13:11:39.836Z,7.00
2023-01-30T13:14:15.525Z,6.89
2023-01-30T13:16:41.994Z,6.90
2023-01-30T13:19:20.949Z,6.97
2023-01-30T13:21:56.277Z,6.97
2023-01-30T13:24:48.678Z,7.03
2023-01-30T13:27:19.997Z,7.02
2023-01-30T13:29:48.901Z,7.04
2023-01-30T13:32:35.615Z,6.92
2023-01-30T13:35:06.784Z,6.91
2023-01-30T13:37:34.281Z,6.81
2023-01-30T13:40:16.102Z,6.79
2023-01-30T13:42:50.015Z,6.68
2023-01-30T13:45:23.727Z,6.68
2023-01-30T13:47:53.247Z,6.63
2023-01-30T13:50:28.938Z,6.63
2023-01-30T13:53:22.684Z,6.65
2023-01-30T13:55:58.374Z,6.51
2023-01-30T13:58:43.882Z,6.16
2023-01-30T14:01:14.339Z,5.97
2023-01-30T14:03:42.041Z,5.90
2023-01-30T14:06:10.846Z,5.93
2023-01-30T14:08:46.419Z,5.91
2023-01-30T14:11:33.908Z,5.87
2023-01-30T14:14:04.398Z,5.87
2023-01-30T14:16:51.926Z,5.89
2023-01-30T14:19:24.199Z,5.93
2023-01-30T14:21:58.862Z,5.73
2023-01-30T14:24:27.494Z,5.79
2023-01-30T14:27:04.848Z,5.76
2023-01-30T14:29:37.460Z,5.75
2023-01-30T14:32:10.062Z,5.60
2023-01-30T14:34:41.630Z,5.65
2023-01-30T14:37:39.205Z,5.44
2023-01-30T14:40:36.031Z,5.35
2023-01-30T14:43:20.335Z,5.35
2023-01-30T14:45:51.503Z,5.38
2023-01-30T14:48:39.815Z,5.32
2023-01-30T14:51:45.372Z,5.32
2023-01-30T14:54:11.837Z,5.28
2023-01-30T14:56:58.587Z,5.33
2023-01-30T14:59:33.857Z,5.32
2023-01-30T15:02:21.541Z,5.25
2023-01-30T15:04:57.677Z,5.35
2023-01-30T15:07:41.308Z,5.30
2023-01-30T15:10:23.686Z,5.25
2023-01-30T15:13:04.535Z,5.27
2023-01-30T15:15:49.435Z,5.27
2023-01-30T15:18:27.987Z,5.24
2023-01-30T15:21:19.593Z,5.33
2023-01-30T15:24:00.894Z,5.37
2023-01-30T15:26:56.686Z,5.44
2023-01-30T15:29:44.503Z,5.56
2023-01-30T15:32:20.080Z,5.53
2023-01-30T15:34:58.331Z,5.42
2023-01-30T15:37:30.983Z,5.39
2023-01-30T15:40:15.656Z,5.41
2023-01-30T15:42:51.584Z,5.39
2023-01-30T15:45:27.989Z,5.42
2023-01-30T15:48:38.024Z,5.37
2023-01-30T15:51:05.063Z,5.39
2023-01-30T15:53:36.042Z,5.32
2023-01-30T15:56:07.174Z,5.29
2023-01-30T15:58:38.056Z,5.37
2023-01-30T16:01:04.905Z,5.40
2023-01-30T16:03:36.617Z,5.31
2023-01-30T16:06:03.838Z,5.29
2023-01-30T16:08:32.879Z,5.33
2023-01-30T16:11:00.742Z,5.27
2023-01-30T16:13:29.408Z,5.32
2023-01-30T16:16:05.076Z,5.28
2023-01-30T16:18:46.125Z,5.22
2023-01-30T16:21:28.530Z,5.19
2023-01-30T16:24:00.897Z,5.12
2023-01-30T16:26:27.736Z,5.15
2023-01-30T16:29:02.387Z,5.13
2023-01-30T16:31:39.202Z,5.13
2023-01-30T16:34:05.858Z,5.06
2023-01-30T16:36:39.638Z,5.16
2023-01-30T16:39:27.745Z,5.13
2023-01-30T16:41:56.190Z,5.42
2023-01-30T16:44:23.918Z,5.76
2023-01-30T16:46:54.771Z,6.01
2023-01-30T16:49:30.159Z,6.09
2023-01-30T16:52:05.351Z,5.93
2023-01-30T16:54:46.149Z,5.54
2023-01-30T16:57:37.366Z,5.12
2023-01-30T17:00:10.093Z,5.09
2023-01-30T17:02:40.031Z,5.22
2023-01-30T17:05:20.521Z,5.18
2023-01-30T17:07:48.397Z,4.94
2023-01-30T17:10:39.578Z,4.91
2023-01-30T17:13:35.735Z,5.10
2023-01-30T17:16:27.064Z,5.07
2023-01-30T17:18:56.022Z,4.91
2023-01-30T17:21:25.446Z,4.85
2023-01-30T17:23:59.593Z,4.88
2023-01-30T17:26:26.150Z,4.69
2023-01-30T17:28:52.694Z,4.70
2023-01-30T17:31:20.935Z,4.73
2023-01-30T17:33:47.660Z,4.78
2023-01-30T17:36:23.073Z,4.74
2023-01-30T17:38:50.696Z,4.73
2023-01-30T17:41:22.946Z,4.56
2023-01-30T17:43:50.709Z,4.54
2023-01-30T17:46:18.090Z,4.81
2023-01-30T17:48:44.744Z,4.73
2023-01-30T17:51:14.339Z,4.47
2023-01-30T17:53:41.881Z,4.80
2023-01-30T17:56:30.044Z,4.81
2023-01-30T17:58:56.520Z,4.62
2023-01-30T18:01:23.001Z,4.67
2023-01-30T18:03:49.548Z,4.44
2023-01-30T18:06:16.404Z,4.57
2023-01-30T18:08:42.976Z,4.42
2023-01-30T18:11:11.847Z,4.34
2023-01-30T18:13:48.167Z,4.37
2023-01-30T18:16:19.868Z,4.40
2023-01-30T18:18:46.711Z,4.39
2023-01-30T18:21:13.181Z,4.42
2023-01-30T18:23:39.689Z,4.42
2023-01-30T18:26:06.275Z,4.42
2023-01-30T18:28:32.884Z,4.53
2023-01-30T18:30:59.626Z,4.60
2023-01-30T18:33:26.237Z,4.56
2023-01-30T18:35:52.725Z,4.47
2023-01-30T18:38:19.236Z,4.48
2023-01-30T18:40:45.854Z,4.48
2023-01-30T18:43:12.429Z,4.43
2023-01-30T18:45:38.944Z,4.25
2023-01-30T18:48:05.675Z,4.30
2023-01-30T18:50:32.257Z,4.34
2023-01-30T18:52:58.797Z,4.37
2023-01-30T18:55:25.690Z,4.31
2023-01-30T18:57:52.634Z,4.25
2023-01-30T19:00:21.350Z,4.23
2023-01-30T19:02:52.885Z,4.19
2023-01-30T19:05:20.124Z,4.18
2023-01-30T19:07:46.728Z,4.30
2023-01-30T19:10:17.345Z,4.25
2023-01-30T19:13:03.437Z,4.22
2023-01-30T19:15:30.023Z,4.23
2023-01-30T19:17:57.201Z,4.25
2023-01-30T19:20:24.811Z,4.22
2023-01-30T19:22:51.590Z,4.21
2023-01-30T19:25:18.140Z,4.32
2023-01-30T19:27:44.745Z,4.29
2023-01-30T19:30:11.826Z,4.32
2023-01-30T19:32:38.320Z,4.41
2023-01-30T19:35:05.443Z,4.45
2023-01-30T19:37:31.943Z,4.34
2023-01-30T19:39:58.519Z,4.40
2023-01-30T19:42:25.163Z,4.34
2023-01-30T19:44:51.659Z,4.28
2023-01-30T19:47:21.692Z,4.33
2023-01-30T19:49:48.426Z,4.33
2023-01-30T19:52:14.905Z,4.35
2023-01-30T19:54:41.390Z,4.34
2023-01-30T19:57:07.937Z,4.32
2023-01-30T19:59:38.677Z,4.29
2023-01-30T20:02:06.758Z,4.25
2023-01-30T20:04:33.296Z,4.22
2023-01-30T20:06:59.816Z,4.28
2023-01-30T20:09:26.362Z,4.35
2023-01-30T20:11:52.850Z,4.46
2023-01-30T20:14:19.336Z,4.50
2023-01-30T20:16:46.314Z,4.50
2023-01-30T20:19:15.428Z,4.47
2023-01-30T20:21:42.901Z,4.44
2023-01-30T20:24:13.704Z,4.36
2023-01-30T20:26:40.800Z,4.34
2023-01-30T20:29:09.168Z,4.39
2023-01-30T20:31:38.257Z,4.43
2023-01-30T20:34:07.235Z,4.45
2023-01-30T20:36:34.129Z,4.39
2023-01-30T20:39:04.069Z,4.33
2023-01-30T20:41:32.457Z,4.40
2023-01-30T20:43:59.443Z,4.45
2023-01-30T20:46:31.562Z,4.43
2023-01-30T20:49:01.284Z,4.46
2023-01-30T20:51:30.456Z,4.50
2023-01-30T20:54:05.609Z,4.44
2023-01-30T20:56:41.647Z,4.46
2023-01-30T20:59:08.758Z,4.47
2023-01-30T21:01:36.171Z,4.44
2023-01-30T21:04:08.252Z,4.45
2023-01-30T21:06:42.500Z,4.51
2023-01-30T21:09:17.742Z,4.56
2023-01-30T21:11:44.524Z,4.61
2023-01-30T21:14:12.732Z,4.63
2023-01-30T21:16:39.545Z,4.66
2023-01-30T21:19:08.157Z,4.58
2023-01-30T21:21:41.178Z,4.61
2023-01-30T21:24:12.178Z,4.69
2023-01-30T21:26:41.281Z,4.45
2023-01-30T21:29:08.641Z,4.56
2023-01-30T21:31:36.134Z,4.54
2023-01-30T21:34:03.321Z,4.44
2023-01-30T21:36:29.837Z,4.54
2023-01-30T21:39:15.198Z,4.69
2023-01-30T21:41:58.778Z,4.62
2023-01-30T21:44:27.879Z,4.65
2023-01-30T21:46:54.873Z,4.68
2023-01-30T21:49:22.138Z,4.65
2023-01-30T21:51:49.319Z,4.72
2023-01-30T21:54:17.599Z,4.50
2023-01-30T21:56:44.861Z,4.41
2023-01-30T21:59:12.297Z,4.43
2023-01-30T22:01:40.088Z,4.48
2023-01-30T22:04:09.128Z,4.58
2023-01-30T22:06:37.769Z,4.55
2023-01-30T22:09:05.921Z,4.54
2023-01-30T22:11:34.537Z,4.55
2023-01-30T22:14:01.045Z,4.55
2023-01-30T22:16:29.214Z,4.57
2023-01-30T22:19:01.487Z,4.61
2023-01-30T22:21:32.302Z,4.66
2023-01-30T22:23:59.254Z,4.56
2023-01-30T22:26:26.701Z,4.64
2023-01-30T22:28:55.398Z,4.71
2023-01-30T22:31:23.393Z,4.62
2023-01-30T22:33:55.144Z,4.60
2023-01-30T22:36:27.154Z,4.58
2023-01-30T22:38:54.341Z,4.56
2023-01-30T22:41:26.355Z,4.49
2023-01-30T22:43:55.594Z,4.51
2023-01-30T22:46:31.530Z,4.61
2023-01-30T22:48:59.328Z,4.49
2023-01-30T22:51:31.588Z,4.58
2023-01-30T22:54:03.636Z,4.49
2023-01-30T22:56:35.873Z,4.47
2023-01-30T22:59:02.368Z,4.26
2023-01-30T23:01:32.062Z,4.42
2023-01-30T23:04:01.648Z,4.42
2023-01-30T23:06:30.057Z,4.29
2023-01-30T23:08:56.605Z,4.36
2023-01-30T23:11:38.237Z,4.40
2023-01-30T23:14:11.129Z,4.43
2023-01-30T23:16:39.625Z,4.52
2023-01-30T23:19:07.657Z,4.45
2023-01-30T23:21:39.114Z,4.35
2023-01-30T23:24:11.938Z,4.25
2023-01-30T23:26:41.221Z,4.41
2023-01-30T23:29:10.241Z,4.35
2023-01-30T23:31:37.430Z,4.34
2023-01-30T23:34:06.820Z,4.38
2023-01-30T23:36:34.364Z,4.30
2023-01-30T23:39:01.200Z,4.21
2023-01-30T23:41:30.620Z,4.39
2023-01-30T23:43:58.345Z,4.33
2023-01-30T23:46:30.999Z,4.14
2023-01-30T23:48:59.539Z,4.20
2023-01-30T23:51:29.267Z,4.03
2023-01-30T23:53:56.415Z,4.00
2023-01-30T23:56:25.344Z,3.95
2023-01-30T23:58:51.890Z,4.00
